sensor_id;sensor_type;location;lat;lon;timestamp;P1;durP1;ratioP1;P2;durP2;ratioP2
12780;SDS011;6454;43.304;24.344;2022-10-12T00:00:44;8.88;;;6.30;;
12780;SDS011;6454;43.304;24.344;2022-10-12T00:03:11;9.98;;;5.82;;
12780;SDS011;6454;43.304;24.344;2022-10-12T00:05:38;8.23;;;6.15;;
12780;SDS011;6454;43.304;24.344;2022-10-12T00:08:05;9.02;;;6.57;;
12780;SDS011;6454;43.304;24.344;2022-10-12T00:10:32;8.52;;;6.22;;
12780;SDS011;6454;43.304;24.344;2022-10-12T00:12:59;9.80;;;6.40;;
12780;SDS011;6454;43.304;24.344;2022-10-12T00:15:27;11.07;;;6.50;;
12780;SDS011;6454;43.304;24.344;2022-10-12T00:17:54;8.40;;;6.20;;
12780;SDS011;6454;43.304;24.344;2022-10-12T00:20:21;9.68;;;6.68;;
12780;SDS011;6454;43.304;24.344;2022-10-12T00:22:48;8.15;;;6.53;;
12780;SDS011;6454;43.304;24.344;2022-10-12T00:25:15;8.57;;;6.63;;
12780;SDS011;6454;43.304;24.344;2022-10-12T00:27:42;8.20;;;6.20;;
12780;SDS011;6454;43.304;24.344;2022-10-12T00:30:11;8.38;;;6.53;;
12780;SDS011;6454;43.304;24.344;2022-10-12T00:32:39;7.00;;;6.30;;
12780;SDS011;6454;43.304;24.344;2022-10-12T00:35:06;6.22;;;5.60;;
12780;SDS011;6454;43.304;24.344;2022-10-12T00:37:33;6.68;;;5.95;;
12780;SDS011;6454;43.304;24.344;2022-10-12T00:40:00;9.00;;;6.25;;
12780;SDS011;6454;43.304;24.344;2022-10-12T00:42:27;7.05;;;6.20;;
12780;SDS011;6454;43.304;24.344;2022-10-12T00:44:54;7.20;;;6.50;;
12780;SDS011;6454;43.304;24.344;2022-10-12T00:47:23;9.18;;;6.43;;
12780;SDS011;6454;43.304;24.344;2022-10-12T00:49:55;9.48;;;6.93;;
12780;SDS011;6454;43.304;24.344;2022-10-12T00:52:29;8.07;;;6.43;;
12780;SDS011;6454;43.304;24.344;2022-10-12T00:55:02;8.55;;;6.47;;
12780;SDS011;6454;43.304;24.344;2022-10-12T00:57:29;9.95;;;6.38;;
12780;SDS011;6454;43.304;24.344;2022-10-12T00:59:57;7.75;;;6.75;;
12780;SDS011;6454;43.304;24.344;2022-10-12T01:02:28;7.28;;;6.40;;
12780;SDS011;6454;43.304;24.344;2022-10-12T01:04:58;7.50;;;6.50;;
12780;SDS011;6454;43.304;24.344;2022-10-12T01:07:26;8.45;;;6.47;;
12780;SDS011;6454;43.304;24.344;2022-10-12T01:09:52;8.30;;;6.78;;
12780;SDS011;6454;43.304;24.344;2022-10-12T01:12:19;8.00;;;5.95;;
12780;SDS011;6454;43.304;24.344;2022-10-12T01:14:48;9.98;;;7.10;;
12780;SDS011;6454;43.304;24.344;2022-10-12T01:17:20;7.18;;;6.10;;
12780;SDS011;6454;43.304;24.344;2022-10-12T01:20:07;7.25;;;6.38;;
12780;SDS011;6454;43.304;24.344;2022-10-12T01:22:55;6.97;;;6.00;;
12780;SDS011;6454;43.304;24.344;2022-10-12T01:25:49;7.90;;;6.07;;
12780;SDS011;6454;43.304;24.344;2022-10-12T01:28:30;8.07;;;6.53;;
12780;SDS011;6454;43.304;24.344;2022-10-12T01:31:08;8.18;;;6.38;;
12780;SDS011;6454;43.304;24.344;2022-10-12T01:33:41;7.03;;;6.32;;
12780;SDS011;6454;43.304;24.344;2022-10-12T01:36:14;7.07;;;6.35;;
12780;SDS011;6454;43.304;24.344;2022-10-12T01:38:57;6.78;;;6.07;;
12780;SDS011;6454;43.304;24.344;2022-10-12T01:41:30;10.23;;;6.60;;
12780;SDS011;6454;43.304;24.344;2022-10-12T01:44:03;9.32;;;6.60;;
12780;SDS011;6454;43.304;24.344;2022-10-12T01:46:44;8.88;;;6.28;;
12780;SDS011;6454;43.304;24.344;2022-10-12T01:49:12;8.40;;;6.28;;
12780;SDS011;6454;43.304;24.344;2022-10-12T01:51:59;6.78;;;6.07;;
12780;SDS011;6454;43.304;24.344;2022-10-12T01:54:45;9.00;;;6.20;;
12780;SDS011;6454;43.304;24.344;2022-10-12T01:57:27;7.85;;;6.80;;
12780;SDS011;6454;43.304;24.344;2022-10-12T02:00:03;10.00;;;7.72;;
12780;SDS011;6454;43.304;24.344;2022-10-12T02:02:35;8.38;;;6.57;;
12780;SDS011;6454;43.304;24.344;2022-10-12T02:05:13;8.75;;;6.55;;
12780;SDS011;6454;43.304;24.344;2022-10-12T02:07:48;8.95;;;6.65;;
12780;SDS011;6454;43.304;24.344;2022-10-12T02:10:20;7.82;;;6.00;;
12780;SDS011;6454;43.304;24.344;2022-10-12T02:12:49;8.13;;;6.30;;
12780;SDS011;6454;43.304;24.344;2022-10-12T02:15:18;8.77;;;6.95;;
12780;SDS011;6454;43.304;24.344;2022-10-12T02:17:50;7.25;;;6.45;;
12780;SDS011;6454;43.304;24.344;2022-10-12T02:20:19;11.13;;;6.75;;
12780;SDS011;6454;43.304;24.344;2022-10-12T02:22:49;8.05;;;7.05;;
12780;SDS011;6454;43.304;24.344;2022-10-12T02:25:18;8.48;;;6.78;;
12780;SDS011;6454;43.304;24.344;2022-10-12T02:27:48;9.25;;;6.90;;
12780;SDS011;6454;43.304;24.344;2022-10-12T02:30:18;7.57;;;6.47;;
12780;SDS011;6454;43.304;24.344;2022-10-12T02:32:47;7.93;;;6.60;;
12780;SDS011;6454;43.304;24.344;2022-10-12T02:35:21;11.60;;;6.15;;
12780;SDS011;6454;43.304;24.344;2022-10-12T02:37:53;10.55;;;7.20;;
12780;SDS011;6454;43.304;24.344;2022-10-12T02:40:24;9.43;;;7.63;;
12780;SDS011;6454;43.304;24.344;2022-10-12T02:42:56;8.05;;;7.18;;
12780;SDS011;6454;43.304;24.344;2022-10-12T02:45:29;8.30;;;7.50;;
12780;SDS011;6454;43.304;24.344;2022-10-12T02:47:59;11.13;;;7.15;;
12780;SDS011;6454;43.304;24.344;2022-10-12T02:50:28;9.45;;;7.30;;
12780;SDS011;6454;43.304;24.344;2022-10-12T02:52:56;9.60;;;7.05;;
12780;SDS011;6454;43.304;24.344;2022-10-12T02:55:24;9.07;;;6.85;;
12780;SDS011;6454;43.304;24.344;2022-10-12T02:57:51;8.48;;;6.97;;
12780;SDS011;6454;43.304;24.344;2022-10-12T03:00:18;8.10;;;6.50;;
12780;SDS011;6454;43.304;24.344;2022-10-12T03:02:45;7.50;;;6.70;;
12780;SDS011;6454;43.304;24.344;2022-10-12T03:05:13;9.93;;;7.35;;
12780;SDS011;6454;43.304;24.344;2022-10-12T03:07:40;16.13;;;7.28;;
12780;SDS011;6454;43.304;24.344;2022-10-12T03:10:07;10.35;;;7.07;;
12780;SDS011;6454;43.304;24.344;2022-10-12T03:12:35;7.45;;;6.65;;
12780;SDS011;6454;43.304;24.344;2022-10-12T03:15:02;9.93;;;7.35;;
12780;SDS011;6454;43.304;24.344;2022-10-12T03:17:29;9.43;;;7.13;;
12780;SDS011;6454;43.304;24.344;2022-10-12T03:19:56;8.27;;;7.10;;
12780;SDS011;6454;43.304;24.344;2022-10-12T03:22:24;7.50;;;6.80;;
12780;SDS011;6454;43.304;24.344;2022-10-12T03:24:51;8.55;;;7.38;;
12780;SDS011;6454;43.304;24.344;2022-10-12T03:27:18;9.02;;;6.82;;
12780;SDS011;6454;43.304;24.344;2022-10-12T03:29:45;8.60;;;6.93;;
12780;SDS011;6454;43.304;24.344;2022-10-12T03:32:11;11.90;;;6.97;;
12780;SDS011;6454;43.304;24.344;2022-10-12T03:34:40;8.23;;;7.10;;
12780;SDS011;6454;43.304;24.344;2022-10-12T03:37:07;10.15;;;7.22;;
12780;SDS011;6454;43.304;24.344;2022-10-12T03:39:35;10.25;;;6.93;;
12780;SDS011;6454;43.304;24.344;2022-10-12T03:42:02;8.90;;;7.10;;
12780;SDS011;6454;43.304;24.344;2022-10-12T03:44:29;9.82;;;7.82;;
12780;SDS011;6454;43.304;24.344;2022-10-12T03:46:56;11.65;;;7.78;;
12780;SDS011;6454;43.304;24.344;2022-10-12T03:49:22;9.35;;;7.47;;
12780;SDS011;6454;43.304;24.344;2022-10-12T03:51:49;8.48;;;7.45;;
12780;SDS011;6454;43.304;24.344;2022-10-12T03:54:16;11.00;;;7.45;;
12780;SDS011;6454;43.304;24.344;2022-10-12T03:56:44;9.82;;;7.53;;
12780;SDS011;6454;43.304;24.344;2022-10-12T03:59:11;8.15;;;7.32;;
12780;SDS011;6454;43.304;24.344;2022-10-12T04:01:38;12.00;;;7.80;;
12780;SDS011;6454;43.304;24.344;2022-10-12T04:04:05;11.02;;;7.68;;
12780;SDS011;6454;43.304;24.344;2022-10-12T04:06:32;9.90;;;7.68;;
12780;SDS011;6454;43.304;24.344;2022-10-12T04:08:59;9.43;;;6.90;;
12780;SDS011;6454;43.304;24.344;2022-10-12T04:11:25;12.70;;;7.75;;
12780;SDS011;6454;43.304;24.344;2022-10-12T04:13:54;8.35;;;7.53;;
12780;SDS011;6454;43.304;24.344;2022-10-12T04:16:21;11.50;;;7.53;;
12780;SDS011;6454;43.304;24.344;2022-10-12T04:18:47;10.98;;;7.72;;
12780;SDS011;6454;43.304;24.344;2022-10-12T04:21:15;13.10;;;7.35;;
12780;SDS011;6454;43.304;24.344;2022-10-12T04:23:42;8.73;;;7.82;;
12780;SDS011;6454;43.304;24.344;2022-10-12T04:26:09;9.00;;;8.10;;
12780;SDS011;6454;43.304;24.344;2022-10-12T04:28:36;8.88;;;7.70;;
12780;SDS011;6454;43.304;24.344;2022-10-12T04:31:04;8.93;;;7.60;;
12780;SDS011;6454;43.304;24.344;2022-10-12T04:33:31;11.52;;;7.93;;
12780;SDS011;6454;43.304;24.344;2022-10-12T04:35:58;12.32;;;7.97;;
12780;SDS011;6454;43.304;24.344;2022-10-12T04:38:25;11.05;;;7.57;;
12780;SDS011;6454;43.304;24.344;2022-10-12T04:40:51;10.20;;;7.53;;
12780;SDS011;6454;43.304;24.344;2022-10-12T04:43:18;8.25;;;7.38;;
12780;SDS011;6454;43.304;24.344;2022-10-12T04:45:52;7.95;;;7.13;;
12780;SDS011;6454;43.304;24.344;2022-10-12T04:48:21;9.45;;;7.97;;
12780;SDS011;6454;43.304;24.344;2022-10-12T04:50:48;9.50;;;7.07;;
12780;SDS011;6454;43.304;24.344;2022-10-12T04:53:15;12.35;;;7.75;;
12780;SDS011;6454;43.304;24.344;2022-10-12T04:55:42;8.90;;;7.05;;
12780;SDS011;6454;43.304;24.344;2022-10-12T04:58:09;8.05;;;7.25;;
12780;SDS011;6454;43.304;24.344;2022-10-12T05:00:36;10.65;;;7.53;;
12780;SDS011;6454;43.304;24.344;2022-10-12T05:03:04;8.52;;;7.25;;
12780;SDS011;6454;43.304;24.344;2022-10-12T05:05:32;9.80;;;7.72;;
12780;SDS011;6454;43.304;24.344;2022-10-12T05:08:00;9.52;;;7.82;;
12780;SDS011;6454;43.304;24.344;2022-10-12T05:10:27;10.32;;;7.70;;
12780;SDS011;6454;43.304;24.344;2022-10-12T05:12:54;8.00;;;6.93;;
12780;SDS011;6454;43.304;24.344;2022-10-12T05:15:21;9.85;;;7.88;;
12780;SDS011;6454;43.304;24.344;2022-10-12T05:17:48;8.02;;;7.22;;
12780;SDS011;6454;43.304;24.344;2022-10-12T05:20:14;9.90;;;8.07;;
12780;SDS011;6454;43.304;24.344;2022-10-12T05:22:43;9.63;;;7.32;;
12780;SDS011;6454;43.304;24.344;2022-10-12T05:25:10;8.57;;;7.57;;
12780;SDS011;6454;43.304;24.344;2022-10-12T05:27:37;10.82;;;7.88;;
12780;SDS011;6454;43.304;24.344;2022-10-12T05:30:04;9.27;;;7.40;;
12780;SDS011;6454;43.304;24.344;2022-10-12T05:32:32;9.15;;;7.65;;
12780;SDS011;6454;43.304;24.344;2022-10-12T05:34:59;9.07;;;8.07;;
12780;SDS011;6454;43.304;24.344;2022-10-12T05:37:26;11.77;;;7.88;;
12780;SDS011;6454;43.304;24.344;2022-10-12T05:39:54;8.68;;;7.53;;
12780;SDS011;6454;43.304;24.344;2022-10-12T05:42:21;10.05;;;7.60;;
12780;SDS011;6454;43.304;24.344;2022-10-12T05:44:48;10.27;;;8.00;;
12780;SDS011;6454;43.304;24.344;2022-10-12T05:47:15;8.88;;;7.20;;
12780;SDS011;6454;43.304;24.344;2022-10-12T05:49:41;10.52;;;8.25;;
12780;SDS011;6454;43.304;24.344;2022-10-12T05:52:08;9.55;;;7.78;;
12780;SDS011;6454;43.304;24.344;2022-10-12T05:54:35;9.13;;;8.18;;
12780;SDS011;6454;43.304;24.344;2022-10-12T05:57:04;8.23;;;7.38;;
12780;SDS011;6454;43.304;24.344;2022-10-12T05:59:31;9.75;;;8.00;;
12780;SDS011;6454;43.304;24.344;2022-10-12T06:01:57;11.50;;;8.98;;
12780;SDS011;6454;43.304;24.344;2022-10-12T06:04:24;10.50;;;8.30;;
12780;SDS011;6454;43.304;24.344;2022-10-12T06:06:51;14.18;;;8.73;;
12780;SDS011;6454;43.304;24.344;2022-10-12T06:09:18;12.18;;;8.43;;
12780;SDS011;6454;43.304;24.344;2022-10-12T06:11:45;10.45;;;7.93;;
12780;SDS011;6454;43.304;24.344;2022-10-12T06:14:13;10.98;;;7.88;;
12780;SDS011;6454;43.304;24.344;2022-10-12T06:16:41;8.68;;;7.20;;
12780;SDS011;6454;43.304;24.344;2022-10-12T06:19:09;9.75;;;8.15;;
12780;SDS011;6454;43.304;24.344;2022-10-12T06:21:36;9.13;;;7.75;;
12780;SDS011;6454;43.304;24.344;2022-10-12T06:24:03;12.02;;;8.27;;
12780;SDS011;6454;43.304;24.344;2022-10-12T06:26:30;10.73;;;7.55;;
12780;SDS011;6454;43.304;24.344;2022-10-12T06:28:57;8.98;;;7.60;;
12780;SDS011;6454;43.304;24.344;2022-10-12T06:31:26;12.70;;;8.18;;
12780;SDS011;6454;43.304;24.344;2022-10-12T06:33:53;10.02;;;8.20;;
12780;SDS011;6454;43.304;24.344;2022-10-12T06:36:20;11.45;;;8.50;;
12780;SDS011;6454;43.304;24.344;2022-10-12T06:38:48;9.32;;;7.72;;
12780;SDS011;6454;43.304;24.344;2022-10-12T06:41:14;11.23;;;8.40;;
12780;SDS011;6454;43.304;24.344;2022-10-12T06:43:41;9.50;;;7.93;;
12780;SDS011;6454;43.304;24.344;2022-10-12T06:46:08;13.88;;;7.95;;
12780;SDS011;6454;43.304;24.344;2022-10-12T06:48:37;9.55;;;7.07;;
12780;SDS011;6454;43.304;24.344;2022-10-12T06:51:04;15.02;;;7.68;;
12780;SDS011;6454;43.304;24.344;2022-10-12T06:53:31;11.25;;;7.80;;
12780;SDS011;6454;43.304;24.344;2022-10-12T06:55:59;12.35;;;7.78;;
12780;SDS011;6454;43.304;24.344;2022-10-12T06:58:30;9.10;;;7.10;;
12780;SDS011;6454;43.304;24.344;2022-10-12T08:37:15;11.10;;;6.90;;
12780;SDS011;6454;43.304;24.344;2022-10-12T08:39:42;12.30;;;7.25;;
12780;SDS011;6454;43.304;24.344;2022-10-12T08:42:12;15.77;;;7.82;;
12780;SDS011;6454;43.304;24.344;2022-10-12T08:44:54;10.10;;;6.85;;
12780;SDS011;6454;43.304;24.344;2022-10-12T08:47:31;11.48;;;6.95;;
12780;SDS011;6454;43.304;24.344;2022-10-12T08:50:04;10.15;;;7.55;;
12780;SDS011;6454;43.304;24.344;2022-10-12T08:52:37;10.38;;;7.40;;
12780;SDS011;6454;43.304;24.344;2022-10-12T08:55:15;10.60;;;6.80;;
12780;SDS011;6454;43.304;24.344;2022-10-12T08:57:49;9.30;;;7.15;;
12780;SDS011;6454;43.304;24.344;2022-10-12T09:00:17;10.25;;;7.20;;
12780;SDS011;6454;43.304;24.344;2022-10-12T09:02:52;10.15;;;7.65;;
12780;SDS011;6454;43.304;24.344;2022-10-12T09:05:32;10.32;;;7.43;;
12780;SDS011;6454;43.304;24.344;2022-10-12T09:08:05;11.10;;;7.55;;
12780;SDS011;6454;43.304;24.344;2022-10-12T09:10:42;10.15;;;7.45;;
12780;SDS011;6454;43.304;24.344;2022-10-12T09:13:23;12.45;;;7.72;;
12780;SDS011;6454;43.304;24.344;2022-10-12T09:16:02;15.88;;;7.97;;
12780;SDS011;6454;43.304;24.344;2022-10-12T09:18:33;12.40;;;8.70;;
12780;SDS011;6454;43.304;24.344;2022-10-12T09:21:04;14.13;;;7.78;;
12780;SDS011;6454;43.304;24.344;2022-10-12T09:23:38;8.52;;;7.60;;
12780;SDS011;6454;43.304;24.344;2022-10-12T09:26:09;9.98;;;7.32;;
12780;SDS011;6454;43.304;24.344;2022-10-12T09:28:41;12.50;;;7.53;;
12780;SDS011;6454;43.304;24.344;2022-10-12T09:31:16;9.10;;;7.15;;
12780;SDS011;6454;43.304;24.344;2022-10-12T09:33:56;11.25;;;7.00;;
12780;SDS011;6454;43.304;24.344;2022-10-12T09:36:25;13.63;;;7.38;;
12780;SDS011;6454;43.304;24.344;2022-10-12T09:38:57;12.63;;;7.45;;
12780;SDS011;6454;43.304;24.344;2022-10-12T09:41:28;10.02;;;7.75;;
12780;SDS011;6454;43.304;24.344;2022-10-12T09:43:59;13.18;;;7.80;;
12780;SDS011;6454;43.304;24.344;2022-10-12T09:46:28;12.13;;;7.53;;
12780;SDS011;6454;43.304;24.344;2022-10-12T09:49:04;12.18;;;7.05;;
12780;SDS011;6454;43.304;24.344;2022-10-12T09:51:31;13.15;;;8.57;;
12780;SDS011;6454;43.304;24.344;2022-10-12T09:54:00;10.93;;;7.13;;
12780;SDS011;6454;43.304;24.344;2022-10-12T09:56:33;13.93;;;7.78;;
12780;SDS011;6454;43.304;24.344;2022-10-12T09:59:04;12.18;;;7.28;;
12780;SDS011;6454;43.304;24.344;2022-10-12T10:01:33;10.75;;;7.50;;
12780;SDS011;6454;43.304;24.344;2022-10-12T10:04:11;9.00;;;6.90;;
12780;SDS011;6454;43.304;24.344;2022-10-12T10:06:41;8.20;;;7.00;;
12780;SDS011;6454;43.304;24.344;2022-10-12T10:09:30;9.85;;;7.40;;
12780;SDS011;6454;43.304;24.344;2022-10-12T10:12:10;12.57;;;7.07;;
12780;SDS011;6454;43.304;24.344;2022-10-12T10:14:40;9.35;;;7.07;;
12780;SDS011;6454;43.304;24.344;2022-10-12T10:17:12;8.52;;;7.10;;
12780;SDS011;6454;43.304;24.344;2022-10-12T10:19:41;12.35;;;7.15;;
12780;SDS011;6454;43.304;24.344;2022-10-12T10:22:15;11.05;;;6.63;;
12780;SDS011;6454;43.304;24.344;2022-10-12T10:24:44;11.85;;;8.05;;
12780;SDS011;6454;43.304;24.344;2022-10-12T10:27:25;10.60;;;7.93;;
12780;SDS011;6454;43.304;24.344;2022-10-12T10:30:06;8.68;;;7.40;;
12780;SDS011;6454;43.304;24.344;2022-10-12T10:32:35;10.32;;;7.50;;
12780;SDS011;6454;43.304;24.344;2022-10-12T10:35:03;10.68;;;8.02;;
12780;SDS011;6454;43.304;24.344;2022-10-12T10:37:31;10.13;;;7.65;;
12780;SDS011;6454;43.304;24.344;2022-10-12T10:40:00;10.60;;;7.82;;
12780;SDS011;6454;43.304;24.344;2022-10-12T10:42:28;11.20;;;7.35;;
12780;SDS011;6454;43.304;24.344;2022-10-12T10:44:57;9.88;;;7.38;;
12780;SDS011;6454;43.304;24.344;2022-10-12T10:47:26;9.32;;;7.63;;
12780;SDS011;6454;43.304;24.344;2022-10-12T10:49:55;9.23;;;7.55;;
12780;SDS011;6454;43.304;24.344;2022-10-12T10:52:24;12.05;;;8.40;;
12780;SDS011;6454;43.304;24.344;2022-10-12T10:55:09;10.98;;;7.50;;
12780;SDS011;6454;43.304;24.344;2022-10-12T10:57:43;12.90;;;8.00;;
12780;SDS011;6454;43.304;24.344;2022-10-12T11:00:14;11.00;;;7.85;;
12780;SDS011;6454;43.304;24.344;2022-10-12T11:02:44;15.05;;;8.27;;
12780;SDS011;6454;43.304;24.344;2022-10-12T11:05:18;10.38;;;7.85;;
12780;SDS011;6454;43.304;24.344;2022-10-12T11:07:49;11.75;;;8.25;;
12780;SDS011;6454;43.304;24.344;2022-10-12T11:10:36;11.50;;;8.68;;
12780;SDS011;6454;43.304;24.344;2022-10-12T11:13:11;13.57;;;9.57;;
12780;SDS011;6454;43.304;24.344;2022-10-12T11:15:43;10.25;;;7.47;;
12780;SDS011;6454;43.304;24.344;2022-10-12T11:18:15;12.65;;;9.30;;
12780;SDS011;6454;43.304;24.344;2022-10-12T11:20:48;15.45;;;8.30;;
12780;SDS011;6454;43.304;24.344;2022-10-12T11:23:26;13.90;;;8.32;;
12780;SDS011;6454;43.304;24.344;2022-10-12T11:25:59;12.32;;;8.45;;
12780;SDS011;6454;43.304;24.344;2022-10-12T11:28:33;13.02;;;7.80;;
12780;SDS011;6454;43.304;24.344;2022-10-12T11:31:03;11.48;;;8.30;;
12780;SDS011;6454;43.304;24.344;2022-10-12T11:33:33;13.40;;;7.95;;
12780;SDS011;6454;43.304;24.344;2022-10-12T11:36:03;15.00;;;10.02;;
12780;SDS011;6454;43.304;24.344;2022-10-12T11:38:34;13.18;;;9.25;;
12780;SDS011;6454;43.304;24.344;2022-10-12T11:41:07;16.80;;;13.43;;
12780;SDS011;6454;43.304;24.344;2022-10-12T11:43:39;15.73;;;10.68;;
12780;SDS011;6454;43.304;24.344;2022-10-12T11:46:11;13.82;;;10.88;;
12780;SDS011;6454;43.304;24.344;2022-10-12T11:48:43;14.52;;;10.43;;
12780;SDS011;6454;43.304;24.344;2022-10-12T11:51:14;13.57;;;10.00;;
12780;SDS011;6454;43.304;24.344;2022-10-12T11:53:43;15.40;;;13.40;;
12780;SDS011;6454;43.304;24.344;2022-10-12T11:56:19;20.67;;;17.13;;
12780;SDS011;6454;43.304;24.344;2022-10-12T11:58:51;19.20;;;15.10;;
12780;SDS011;6454;43.304;24.344;2022-10-12T12:04:23;14.80;;;12.10;;
12780;SDS011;6454;43.304;24.344;2022-10-12T12:06:57;16.23;;;11.82;;
12780;SDS011;6454;43.304;24.344;2022-10-12T12:09:33;19.05;;;14.48;;
12780;SDS011;6454;43.304;24.344;2022-10-12T12:12:08;17.73;;;13.90;;
12780;SDS011;6454;43.304;24.344;2022-10-12T12:14:45;15.45;;;12.38;;
12780;SDS011;6454;43.304;24.344;2022-10-12T12:17:24;15.85;;;14.25;;
12780;SDS011;6454;43.304;24.344;2022-10-12T12:19:53;16.85;;;13.93;;
12780;SDS011;6454;43.304;24.344;2022-10-12T12:22:24;17.75;;;13.95;;
12780;SDS011;6454;43.304;24.344;2022-10-12T12:27:48;15.45;;;13.35;;
12780;SDS011;6454;43.304;24.344;2022-10-12T12:30:21;16.17;;;13.15;;
12780;SDS011;6454;43.304;24.344;2022-10-12T12:32:58;18.70;;;14.85;;
12780;SDS011;6454;43.304;24.344;2022-10-12T12:35:28;23.70;;;17.00;;
12780;SDS011;6454;43.304;24.344;2022-10-12T12:37:59;17.85;;;15.93;;
12780;SDS011;6454;43.304;24.344;2022-10-12T12:40:29;22.40;;;17.00;;
12780;SDS011;6454;43.304;24.344;2022-10-12T12:46:01;18.92;;;15.80;;
12780;SDS011;6454;43.304;24.344;2022-10-12T12:51:23;22.70;;;17.60;;
12780;SDS011;6454;43.304;24.344;2022-10-12T12:54:01;20.05;;;17.80;;
12780;SDS011;6454;43.304;24.344;2022-10-12T12:56:32;24.35;;;18.02;;
12780;SDS011;6454;43.304;24.344;2022-10-12T13:02:03;24.40;;;19.35;;
12780;SDS011;6454;43.304;24.344;2022-10-12T13:05:02;21.25;;;18.27;;
12780;SDS011;6454;43.304;24.344;2022-10-12T13:07:52;23.05;;;19.10;;
12780;SDS011;6454;43.304;24.344;2022-10-12T13:10:36;24.35;;;19.17;;
12780;SDS011;6454;43.304;24.344;2022-10-12T13:13:12;24.15;;;18.95;;
12780;SDS011;6454;43.304;24.344;2022-10-12T13:15:57;23.70;;;19.02;;
12780;SDS011;6454;43.304;24.344;2022-10-12T13:18:39;25.88;;;16.92;;
12780;SDS011;6454;43.304;24.344;2022-10-12T13:21:24;20.92;;;15.52;;
12780;SDS011;6454;43.304;24.344;2022-10-12T13:23:54;21.30;;;15.98;;
12780;SDS011;6454;43.304;24.344;2022-10-12T13:26:27;23.95;;;16.50;;
12780;SDS011;6454;43.304;24.344;2022-10-12T13:28:56;19.42;;;16.23;;
12780;SDS011;6454;43.304;24.344;2022-10-12T13:31:29;19.48;;;16.05;;
12780;SDS011;6454;43.304;24.344;2022-10-12T13:34:04;23.02;;;16.75;;
12780;SDS011;6454;43.304;24.344;2022-10-12T13:36:45;19.38;;;16.30;;
12780;SDS011;6454;43.304;24.344;2022-10-12T13:39:17;18.17;;;14.68;;
12780;SDS011;6454;43.304;24.344;2022-10-12T13:41:45;19.63;;;16.00;;
12780;SDS011;6454;43.304;24.344;2022-10-12T13:44:18;19.65;;;15.80;;
12780;SDS011;6454;43.304;24.344;2022-10-12T13:46:49;22.88;;;16.52;;
12780;SDS011;6454;43.304;24.344;2022-10-12T13:49:21;19.55;;;15.35;;
12780;SDS011;6454;43.304;24.344;2022-10-12T13:51:50;20.67;;;14.80;;
12780;SDS011;6454;43.304;24.344;2022-10-12T13:54:20;21.98;;;14.98;;
12780;SDS011;6454;43.304;24.344;2022-10-12T13:56:49;19.75;;;14.95;;
12780;SDS011;6454;43.304;24.344;2022-10-12T13:59:19;18.63;;;13.93;;
12780;SDS011;6454;43.304;24.344;2022-10-12T14:01:50;18.08;;;13.73;;
12780;SDS011;6454;43.304;24.344;2022-10-12T14:04:20;16.85;;;14.10;;
12780;SDS011;6454;43.304;24.344;2022-10-12T14:06:50;19.08;;;13.77;;
12780;SDS011;6454;43.304;24.344;2022-10-12T14:09:22;15.25;;;12.45;;
12780;SDS011;6454;43.304;24.344;2022-10-12T14:11:50;18.75;;;12.75;;
12780;SDS011;6454;43.304;24.344;2022-10-12T14:14:23;16.88;;;12.35;;
12780;SDS011;6454;43.304;24.344;2022-10-12T14:16:58;16.38;;;12.48;;
12780;SDS011;6454;43.304;24.344;2022-10-12T14:19:31;15.77;;;12.15;;
12780;SDS011;6454;43.304;24.344;2022-10-12T14:22:07;16.23;;;11.75;;
12780;SDS011;6454;43.304;24.344;2022-10-12T14:24:35;14.55;;;11.02;;
12780;SDS011;6454;43.304;24.344;2022-10-12T14:27:03;14.98;;;11.57;;
12780;SDS011;6454;43.304;24.344;2022-10-12T14:29:32;13.90;;;9.88;;
12780;SDS011;6454;43.304;24.344;2022-10-12T14:32:03;14.82;;;10.63;;
12780;SDS011;6454;43.304;24.344;2022-10-12T14:34:39;13.73;;;9.88;;
12780;SDS011;6454;43.304;24.344;2022-10-12T14:37:27;11.73;;;10.10;;
12780;SDS011;6454;43.304;24.344;2022-10-12T14:39:55;13.02;;;9.48;;
12780;SDS011;6454;43.304;24.344;2022-10-12T14:42:27;13.50;;;9.27;;
12780;SDS011;6454;43.304;24.344;2022-10-12T14:44:56;9.57;;;8.43;;
12780;SDS011;6454;43.304;24.344;2022-10-12T14:47:25;11.68;;;9.63;;
12780;SDS011;6454;43.304;24.344;2022-10-12T14:49:54;15.45;;;9.95;;
12780;SDS011;6454;43.304;24.344;2022-10-12T14:52:23;13.45;;;9.38;;
12780;SDS011;6454;43.304;24.344;2022-10-12T14:54:54;10.15;;;9.02;;
12780;SDS011;6454;43.304;24.344;2022-10-12T14:57:22;12.80;;;8.57;;
12780;SDS011;6454;43.304;24.344;2022-10-12T14:59:50;14.80;;;8.48;;
12780;SDS011;6454;43.304;24.344;2022-10-12T15:02:18;9.50;;;8.27;;
12780;SDS011;6454;43.304;24.344;2022-10-12T15:04:48;10.05;;;8.40;;
12780;SDS011;6454;43.304;24.344;2022-10-12T15:07:16;10.63;;;8.00;;
12780;SDS011;6454;43.304;24.344;2022-10-12T15:09:44;9.98;;;8.10;;
12780;SDS011;6454;43.304;24.344;2022-10-12T15:12:13;10.43;;;8.63;;
12780;SDS011;6454;43.304;24.344;2022-10-12T15:14:41;14.48;;;9.38;;
12780;SDS011;6454;43.304;24.344;2022-10-12T15:17:09;9.32;;;7.88;;
12780;SDS011;6454;43.304;24.344;2022-10-12T15:19:37;15.48;;;9.40;;
12780;SDS011;6454;43.304;24.344;2022-10-12T15:22:06;10.30;;;8.50;;
12780;SDS011;6454;43.304;24.344;2022-10-12T15:24:35;10.55;;;9.38;;
12780;SDS011;6454;43.304;24.344;2022-10-12T15:27:02;13.52;;;9.68;;
12780;SDS011;6454;43.304;24.344;2022-10-12T15:29:29;13.57;;;9.18;;
12780;SDS011;6454;43.304;24.344;2022-10-12T15:31:56;13.95;;;9.80;;
12780;SDS011;6454;43.304;24.344;2022-10-12T15:34:23;14.27;;;9.15;;
12780;SDS011;6454;43.304;24.344;2022-10-12T15:36:51;13.50;;;10.07;;
12780;SDS011;6454;43.304;24.344;2022-10-12T15:39:19;12.63;;;9.85;;
12780;SDS011;6454;43.304;24.344;2022-10-12T15:41:46;14.55;;;9.57;;
12780;SDS011;6454;43.304;24.344;2022-10-12T15:44:14;10.25;;;8.80;;
12780;SDS011;6454;43.304;24.344;2022-10-12T15:46:41;12.90;;;9.23;;
12780;SDS011;6454;43.304;24.344;2022-10-12T15:49:10;11.05;;;8.63;;
12780;SDS011;6454;43.304;24.344;2022-10-12T15:51:38;13.57;;;8.98;;
12780;SDS011;6454;43.304;24.344;2022-10-12T15:54:07;11.50;;;8.52;;
12780;SDS011;6454;43.304;24.344;2022-10-12T15:56:36;10.77;;;9.23;;
12780;SDS011;6454;43.304;24.344;2022-10-12T15:59:03;10.85;;;8.07;;
12780;SDS011;6454;43.304;24.344;2022-10-12T16:01:31;12.82;;;8.68;;
12780;SDS011;6454;43.304;24.344;2022-10-12T16:03:59;13.02;;;8.98;;
12780;SDS011;6454;43.304;24.344;2022-10-12T16:06:27;13.27;;;9.07;;
12780;SDS011;6454;43.304;24.344;2022-10-12T16:08:54;13.13;;;8.50;;
12780;SDS011;6454;43.304;24.344;2022-10-12T16:11:21;11.75;;;8.13;;
12780;SDS011;6454;43.304;24.344;2022-10-12T16:13:49;13.38;;;9.10;;
12780;SDS011;6454;43.304;24.344;2022-10-12T16:16:17;18.85;;;9.15;;
12780;SDS011;6454;43.304;24.344;2022-10-12T16:18:44;13.43;;;8.55;;
12780;SDS011;6454;43.304;24.344;2022-10-12T16:21:11;11.85;;;9.23;;
12780;SDS011;6454;43.304;24.344;2022-10-12T16:23:38;11.77;;;8.98;;
12780;SDS011;6454;43.304;24.344;2022-10-12T16:26:06;19.15;;;8.60;;
12780;SDS011;6454;43.304;24.344;2022-10-12T16:28:35;12.88;;;8.73;;
12780;SDS011;6454;43.304;24.344;2022-10-12T16:31:08;10.38;;;8.85;;
12780;SDS011;6454;43.304;24.344;2022-10-12T16:33:36;12.55;;;8.75;;
12780;SDS011;6454;43.304;24.344;2022-10-12T16:36:08;12.05;;;9.63;;
12780;SDS011;6454;43.304;24.344;2022-10-12T16:38:35;12.70;;;9.20;;
12780;SDS011;6454;43.304;24.344;2022-10-12T16:41:06;10.00;;;8.30;;
12780;SDS011;6454;43.304;24.344;2022-10-12T16:43:34;12.07;;;8.75;;
12780;SDS011;6454;43.304;24.344;2022-10-12T16:46:01;9.63;;;8.65;;
12780;SDS011;6454;43.304;24.344;2022-10-12T16:48:29;13.80;;;9.30;;